Terminal Aerodrome Forecast
Issued by NWS

Home | Current Version | Previous Version | Text Only | Print | Product List | Glossary On
Versions: 1 2 3 4 5 6 7 8 9 10 11 12 13
000
FTUS42 KTBW 021141
TAFPIE
TAF
KPIE 021141Z 0212/0312 16005KT P6SM FEW020 BKN250
     FM021500 05006KT P6SM VCTS SCT025CB SCT250
     FM022000 27008KT P6SM FEW040 BKN250
     FM030100 VRB03KT P6SM SCT250=

USA.gov is the U.S. government's official web portal to all federal, state and local government web resources and services.